Time;durP1;ratioP1;P1;durP2;ratioP2;P2;SDS_P1;SDS_P2;PMS_P1;PMS_P2;Temp;Humidity;BMP_temperature;BMP_pressure;BME280_temperature;BME280_humidity;BME280_pressure;Samples;Min_cycle;Max_cycle;Signal;HPM_P1;HPM_P2
2022/04/29 00:00:07;;;;;;;7.60;3.97;;;10.90;99.90;;;;;;4917406;29;20434;-73
2022/04/29 00:02:34;;;;;;;7.97;3.80;;;10.90;99.90;;;;;;4917007;29;20209;-73
2022/04/29 00:05:03;;;;;;;6.83;4.00;;;10.90;99.90;;;;;;4917445;29;20233;-73
2022/04/29 00:07:30;;;;;;;6.93;3.20;;;10.80;99.90;;;;;;4916659;29;20370;-73
2022/04/29 00:09:57;;;;;;;6.43;3.40;;;10.70;99.90;;;;;;4917460;29;20213;-73
2022/04/29 00:12:24;;;;;;;10.93;3.80;;;10.70;99.90;;;;;;4917101;29;20210;-74
2022/04/29 00:14:50;;;;;;;9.30;4.00;;;10.70;99.90;;;;;;4917121;29;20241;-73
2022/04/29 00:17:17;;;;;;;6.53;3.97;;;10.80;99.90;;;;;;4933165;29;20212;-74
2022/04/29 00:19:45;;;;;;;7.90;4.00;;;10.90;99.90;;;;;;4936553;29;20754;-73
2022/04/29 00:22:14;;;;;;;9.67;4.00;;;10.90;99.90;;;;;;4936135;29;20657;-74
2022/04/29 00:24:40;;;;;;;7.43;4.00;;;10.80;99.90;;;;;;4936396;29;20228;-73
2022/04/29 00:27:08;;;;;;;6.17;3.70;;;10.80;99.90;;;;;;4936639;29;20216;-73
2022/04/29 00:29:34;;;;;;;7.00;4.03;;;10.80;99.90;;;;;;4936233;29;20209;-73
2022/04/29 00:32:01;;;;;;;6.90;3.70;;;10.80;99.90;;;;;;4935694;29;20208;-72
2022/04/29 00:34:28;;;;;;;6.70;3.87;;;10.80;99.90;;;;;;4935637;29;20240;-74
2022/04/29 00:36:55;;;;;;;6.83;4.00;;;10.80;99.90;;;;;;4935259;29;20301;-73
2022/04/29 00:39:24;;;;;;;7.87;4.10;;;10.80;99.90;;;;;;4935582;29;20219;-74
2022/04/29 00:41:50;;;;;;;6.67;4.03;;;10.70;99.90;;;;;;4935369;29;20564;-73
2022/04/29 00:44:18;;;;;;;5.77;3.57;;;10.70;99.90;;;;;;4935624;29;20249;-74
2022/04/29 00:46:46;;;;;;;7.73;4.03;;;10.80;99.90;;;;;;4935530;29;20224;-73
2022/04/29 00:49:16;;;;;;;7.47;3.77;;;10.70;99.90;;;;;;4934749;29;20205;-73
2022/04/29 00:51:47;;;;;;;7.43;3.57;;;10.70;99.90;;;;;;4934777;29;20210;-74
2022/04/29 00:54:21;;;;;;;7.53;3.50;;;10.80;99.90;;;;;;4934818;29;20240;-74
2022/04/29 00:56:51;;;;;;;7.37;4.10;;;10.70;99.90;;;;;;4934868;29;20208;-74
2022/04/29 00:59:25;;;;;;;7.60;3.80;;;10.60;99.90;;;;;;4935627;29;20205;-73
2022/04/29 01:01:52;;;;;;;6.57;3.73;;;10.60;99.90;;;;;;4935394;29;20219;-73
2022/04/29 01:04:25;;;;;;;6.07;3.60;;;10.60;99.90;;;;;;4934945;29;20237;-73
2022/04/29 01:06:52;;;;;;;10.07;3.90;;;10.50;99.90;;;;;;4934882;29;20213;-73
2022/04/29 01:09:19;;;;;;;5.50;3.77;;;10.50;99.90;;;;;;4934627;29;20219;-73
2022/04/29 01:11:46;;;;;;;5.50;3.27;;;10.60;99.90;;;;;;4935240;29;20209;-73
2022/04/29 01:14:14;;;;;;;6.67;4.53;;;10.50;99.90;;;;;;4935113;29;20603;-72
2022/04/29 01:16:43;;;;;;;8.23;4.00;;;10.40;99.90;;;;;;4935287;29;20213;-72
2022/04/29 01:19:10;;;;;;;5.77;3.43;;;10.50;99.90;;;;;;4934691;29;20205;-73
2022/04/29 01:21:36;;;;;;;7.50;3.90;;;10.50;99.90;;;;;;4934768;29;20208;-73
2022/04/29 01:24:05;;;;;;;7.40;3.97;;;10.60;99.90;;;;;;4935271;29;20233;-73
2022/04/29 01:26:32;;;;;;;5.57;3.40;;;10.60;99.90;;;;;;4934435;29;20204;-72
2022/04/29 01:29:00;;;;;;;8.00;3.73;;;10.60;99.90;;;;;;4934139;29;20686;-73
2022/04/29 01:31:29;;;;;;;5.63;3.83;;;10.60;99.90;;;;;;4935093;29;20349;-74
2022/04/29 01:33:57;;;;;;;6.87;3.93;;;10.60;99.90;;;;;;4935068;29;20232;-73
2022/04/29 01:36:23;;;;;;;8.70;3.70;;;10.70;99.90;;;;;;4935400;29;20222;-73
2022/04/29 01:38:50;;;;;;;6.30;3.70;;;10.60;99.90;;;;;;4933707;29;20215;-73
2022/04/29 01:41:18;;;;;;;7.20;4.20;;;10.60;99.90;;;;;;4934165;29;20212;-73
2022/04/29 01:43:46;;;;;;;5.77;3.57;;;10.60;99.90;;;;;;4933754;29;20225;-73
2022/04/29 01:46:13;;;;;;;7.30;4.10;;;10.70;99.90;;;;;;4935168;29;20263;-73
2022/04/29 01:48:40;;;;;;;5.73;3.50;;;10.60;99.90;;;;;;4933982;29;20219;-72
2022/04/29 01:51:07;;;;;;;11.17;3.63;;;10.70;99.90;;;;;;4932928;29;20204;-74
2022/04/29 01:53:34;;;;;;;8.30;4.00;;;10.70;99.90;;;;;;4933975;29;20233;-73
2022/04/29 01:56:00;;;;;;;7.70;4.00;;;10.90;99.90;;;;;;4934641;29;20240;-74
2022/04/29 01:58:29;;;;;;;8.23;3.90;;;11.00;99.90;;;;;;4933890;29;20209;-73
2022/04/29 02:00:55;;;;;;;6.93;4.10;;;11.00;99.90;;;;;;4934729;29;20213;-73
2022/04/29 02:03:22;;;;;;;10.80;4.43;;;10.90;99.90;;;;;;4933604;29;20212;-73
2022/04/29 02:05:49;;;;;;;7.67;3.90;;;10.80;99.90;;;;;;4934151;29;20215;-73
2022/04/29 02:08:16;;;;;;;5.73;3.67;;;10.70;99.90;;;;;;4932847;29;20561;-74
2022/04/29 02:10:43;;;;;;;10.73;4.67;;;10.80;99.90;;;;;;4934154;29;20208;-72
2022/04/29 02:13:10;;;;;;;6.70;4.07;;;11.00;99.90;;;;;;4933848;29;20264;-74
2022/04/29 02:15:38;;;;;;;7.17;3.80;;;10.90;99.90;;;;;;4934133;29;20243;-73
2022/04/29 02:18:05;;;;;;;9.93;4.10;;;10.80;99.90;;;;;;4934714;29;20216;-73
2022/04/29 02:20:32;;;;;;;10.10;4.23;;;10.70;99.90;;;;;;4934683;29;20640;-73
2022/04/29 02:22:59;;;;;;;8.00;4.43;;;10.70;99.90;;;;;;4932735;29;20672;-73
2022/04/29 02:25:26;;;;;;;12.97;4.40;;;10.70;99.90;;;;;;4933972;29;20228;-73
2022/04/29 02:27:53;;;;;;;5.47;3.80;;;10.80;99.90;;;;;;4932456;29;20208;-73
2022/04/29 02:30:19;;;;;;;8.17;4.43;;;10.90;99.90;;;;;;4934316;29;20218;-74
2022/04/29 02:32:48;;;;;;;6.77;4.07;;;11.00;99.90;;;;;;4938146;29;20209;-74
2022/04/29 02:35:14;;;;;;;8.73;3.93;;;10.90;99.90;;;;;;4937830;29;20244;-73
2022/04/29 02:37:41;;;;;;;9.83;4.10;;;10.90;99.90;;;;;;4937883;29;20228;-73
2022/04/29 02:40:09;;;;;;;7.53;4.07;;;10.80;99.90;;;;;;4936947;29;20656;-73
2022/04/29 02:42:36;;;;;;;15.47;4.33;;;10.80;99.90;;;;;;4937929;29;20209;-73
2022/04/29 02:45:03;;;;;;;8.83;4.43;;;10.80;99.90;;;;;;4937996;29;20244;-73
2022/04/29 02:47:31;;;;;;;7.13;4.17;;;10.70;99.90;;;;;;4937845;29;20668;-73
2022/04/29 02:49:59;;;;;;;7.33;4.17;;;10.80;99.90;;;;;;4937256;29;20589;-73
2022/04/29 02:52:26;;;;;;;8.17;4.07;;;10.90;99.90;;;;;;4918500;29;20205;-73
2022/04/29 02:54:53;;;;;;;7.90;4.20;;;11.00;99.90;;;;;;4917859;29;20241;-73
2022/04/29 02:57:19;;;;;;;8.40;4.50;;;11.10;99.90;;;;;;4918656;29;20220;-73
2022/04/29 02:59:46;;;;;;;6.17;3.90;;;10.90;99.90;;;;;;4918807;29;20206;-73
2022/04/29 03:02:13;;;;;;;7.43;4.10;;;10.80;99.90;;;;;;4918712;29;20218;-74
2022/04/29 03:04:40;;;;;;;8.47;4.33;;;10.70;99.90;;;;;;4918481;29;20731;-73
2022/04/29 03:07:08;;;;;;;8.10;4.13;;;10.80;99.90;;;;;;4918396;29;20665;-72
2022/04/29 03:09:35;;;;;;;8.83;4.43;;;10.90;99.90;;;;;;4917657;29;20664;-72
2022/04/29 03:12:01;;;;;;;10.43;4.23;;;11.00;99.90;;;;;;4917771;29;20209;-72
2022/04/29 03:14:28;;;;;;;7.27;3.83;;;10.80;99.90;;;;;;4917843;29;20229;-72
2022/04/29 03:16:55;;;;;;;7.77;4.40;;;10.80;99.90;;;;;;4918513;29;20269;-73
2022/04/29 03:19:22;;;;;;;6.33;4.20;;;10.70;99.90;;;;;;4918709;29;20213;-72
2022/04/29 03:21:49;;;;;;;6.97;4.00;;;10.70;99.90;;;;;;4918472;29;20688;-73
2022/04/29 03:24:18;;;;;;;6.27;4.00;;;10.90;99.90;;;;;;4918037;29;20803;-73
2022/04/29 03:26:45;;;;;;;10.83;4.27;;;10.90;99.90;;;;;;4921948;29;20219;-73
2022/04/29 03:29:12;;;;;;;8.53;4.10;;;10.70;99.90;;;;;;4936698;29;20303;-73
2022/04/29 03:31:38;;;;;;;9.43;4.40;;;10.70;99.90;;;;;;4936739;29;20575;-73
2022/04/29 03:34:05;;;;;;;6.43;4.23;;;10.90;99.90;;;;;;4936799;29;20321;-73
2022/04/29 03:36:32;;;;;;;7.40;4.40;;;11.00;99.90;;;;;;4937590;29;20259;-73
2022/04/29 03:38:59;;;;;;;6.33;3.87;;;10.90;99.90;;;;;;4937255;29;20209;-73
2022/04/29 03:41:27;;;;;;;6.40;4.17;;;10.80;99.90;;;;;;4937208;29;20313;-73
2022/04/29 03:43:54;;;;;;;8.93;4.00;;;10.50;99.90;;;;;;4935066;29;20243;-72
2022/04/29 03:46:21;;;;;;;8.50;4.00;;;10.60;99.90;;;;;;4936640;29;20205;-73
2022/04/29 03:51:32;;;;;;;8.53;4.30;;;10.70;99.90;;;;;;4936884;29;20276;-72
2022/04/29 03:53:58;;;;;;;9.23;3.70;;;10.80;99.90;;;;;;4937056;29;20233;-73
2022/04/29 03:56:27;;;;;;;10.13;4.17;;;10.70;99.90;;;;;;4936016;29;20320;-73
2022/04/29 03:58:53;;;;;;;8.83;4.23;;;10.50;99.90;;;;;;4936588;29;20215;-73
2022/04/29 04:01:20;;;;;;;8.47;4.20;;;10.60;99.90;;;;;;4936579;29;20208;-72
2022/04/29 04:03:47;;;;;;;9.40;4.10;;;10.60;99.90;;;;;;4917092;29;20545;-73
2022/04/29 04:08:58;;;;;;;8.60;3.70;;;10.90;99.90;;;;;;4917291;29;20307;-73
2022/04/29 04:11:27;;;;;;;8.90;4.17;;;10.90;99.90;;;;;;4917753;29;20569;-73
2022/04/29 04:13:53;;;;;;;6.30;3.87;;;10.90;99.90;;;;;;4916754;29;20697;-73
2022/04/29 04:16:23;;;;;;;8.70;4.07;;;10.70;99.90;;;;;;4917325;29;20237;-72
2022/04/29 04:18:50;;;;;;;10.13;4.17;;;10.60;99.90;;;;;;4917484;29;20300;-73
2022/04/29 04:21:17;;;;;;;9.40;3.93;;;10.60;99.90;;;;;;4917508;29;20225;-74
2022/04/29 04:23:44;;;;;;;12.80;3.57;;;10.50;99.90;;;;;;4917380;29;20324;-73
2022/04/29 04:26:11;;;;;;;6.00;3.80;;;10.50;99.90;;;;;;4934594;29;20219;-73
2022/04/29 04:28:39;;;;;;;7.23;3.83;;;10.30;99.90;;;;;;4934662;29;20668;-73
2022/04/29 04:31:06;;;;;;;7.60;3.63;;;10.20;99.90;;;;;;4927599;29;20212;-74
2022/04/29 04:33:34;;;;;;;8.93;4.10;;;10.20;99.90;;;;;;4916802;29;20229;-73
2022/04/29 04:36:01;;;;;;;8.17;3.83;;;10.20;99.90;;;;;;4916276;29;20588;-73
2022/04/29 04:38:27;;;;;;;7.93;4.53;;;10.20;99.90;;;;;;4917646;29;20342;-73
2022/04/29 04:40:55;;;;;;;9.07;4.30;;;10.20;99.90;;;;;;4917273;29;20661;-73
2022/04/29 04:43:22;;;;;;;8.47;3.87;;;10.20;99.90;;;;;;4917773;29;20206;-73
2022/04/29 04:45:51;;;;;;;7.50;3.60;;;10.20;99.90;;;;;;4918327;29;20250;-73
2022/04/29 04:48:18;;;;;;;6.47;4.00;;;10.30;99.90;;;;;;4917899;29;20219;-72
2022/04/29 04:50:44;;;;;;;8.20;3.80;;;10.50;99.90;;;;;;4922842;29;20205;-73
2022/04/29 04:53:11;;;;;;;7.60;4.13;;;10.40;99.90;;;;;;4937104;29;20209;-74
2022/04/29 04:55:38;;;;;;;6.77;3.80;;;10.30;99.90;;;;;;4936964;29;20237;-73
2022/04/29 04:58:06;;;;;;;12.67;4.73;;;10.20;99.90;;;;;;4937163;29;20255;-73
2022/04/29 05:00:32;;;;;;;8.07;3.63;;;10.20;99.90;;;;;;4935993;29;20672;-73
2022/04/29 05:03:01;;;;;;;6.20;3.90;;;10.40;99.90;;;;;;4936883;29;20205;-73
2022/04/29 05:05:28;;;;;;;7.97;4.10;;;10.40;99.90;;;;;;4936518;29;20235;-73
2022/04/29 05:07:54;;;;;;;9.37;4.50;;;10.30;99.90;;;;;;4937560;29;20208;-73
2022/04/29 05:10:22;;;;;;;6.97;3.90;;;10.10;99.90;;;;;;4936825;29;20213;-73
2022/04/29 05:12:49;;;;;;;9.07;4.00;;;9.80;99.90;;;;;;4936714;29;20269;-74
2022/04/29 05:15:15;;;;;;;6.57;3.70;;;9.80;99.90;;;;;;4936577;29;20288;-73
2022/04/29 05:17:43;;;;;;;9.67;3.70;;;9.80;99.90;;;;;;4936646;29;20205;-74
2022/04/29 05:20:13;;;;;;;11.17;4.50;;;9.80;99.90;;;;;;4935924;29;20204;-73
2022/04/29 05:22:40;;;;;;;6.93;3.77;;;9.70;99.90;;;;;;4936015;29;20208;-73
2022/04/29 05:25:08;;;;;;;9.07;4.40;;;9.70;99.90;;;;;;4935970;29;20232;-73
2022/04/29 05:27:35;;;;;;;7.37;4.17;;;10.00;99.90;;;;;;4936388;29;20220;-74
2022/04/29 06:52:56;;;;;;;6.93;3.50;;;12.50;99.90;;;;;;4960358;23;20285;-74
2022/04/29 06:55:23;;;;;;;6.97;3.37;;;12.60;99.90;;;;;;4954389;28;20209;-73
2022/04/29 06:57:50;;;;;;;10.60;3.50;;;12.50;99.90;;;;;;4954220;28;20204;-73
2022/04/29 07:00:18;;;;;;;7.07;3.37;;;12.30;99.90;;;;;;4948551;28;20212;-74
2022/04/29 07:02:45;;;;;;;6.33;3.60;;;12.40;99.90;;;;;;4953227;28;20204;-75
2022/04/29 07:05:12;;;;;;;8.90;3.50;;;12.50;99.90;;;;;;4953622;28;20204;-74
2022/04/29 07:07:39;;;;;;;9.17;3.63;;;12.80;99.90;;;;;;4952225;28;20220;-74
2022/04/29 07:10:08;;;;;;;7.40;3.63;;;13.10;99.90;;;;;;4948958;28;20208;-74
2022/04/29 07:12:40;;;;;;;10.40;3.63;;;12.80;99.90;;;;;;4953035;29;20212;-74
2022/04/29 07:15:09;;;;;;;8.30;3.33;;;12.70;99.90;;;;;;4952846;29;20212;-74
2022/04/29 07:17:36;;;;;;;6.87;3.50;;;12.90;99.90;;;;;;4954335;28;20710;-74
2022/04/29 07:20:04;;;;;;;7.40;3.27;;;13.00;99.90;;;;;;4956194;28;20236;-72
2022/04/29 07:22:32;;;;;;;5.80;3.47;;;13.10;99.90;;;;;;4956414;28;20211;-73
2022/04/29 07:24:59;;;;;;;9.27;4.07;;;13.00;99.90;;;;;;4957683;28;20219;-73
2022/04/29 07:27:29;;;;;;;7.03;3.67;;;13.10;99.90;;;;;;4957908;29;20246;-73
2022/04/29 07:29:56;;;;;;;9.13;3.37;;;12.90;99.90;;;;;;4957665;28;20232;-73
2022/04/29 07:32:25;;;;;;;6.47;3.33;;;12.70;99.90;;;;;;4957616;29;20578;-72
2022/04/29 07:43:22;;;;;;;6.83;3.60;;;12.70;99.90;;;;;;4944646;28;20215;-73
2022/04/29 07:45:51;;;;;;;7.67;3.73;;;12.80;99.90;;;;;;4957512;29;20603;-73
2022/04/29 07:48:18;;;;;;;7.87;3.40;;;13.10;99.90;;;;;;4957717;28;20324;-72
2022/04/29 07:50:45;;;;;;;6.87;3.63;;;13.40;99.90;;;;;;4957353;28;20204;-74
2022/04/29 07:53:13;;;;;;;5.80;3.50;;;13.60;99.90;;;;;;4957029;29;20222;-72
2022/04/29 07:55:40;;;;;;;10.63;3.97;;;13.70;99.90;;;;;;4957254;29;20218;-73
2022/04/29 07:58:07;;;;;;;6.33;3.57;;;13.70;99.90;;;;;;4957317;28;20232;-72
2022/04/29 08:00:37;;;;;;;7.37;4.07;;;13.40;99.90;;;;;;4957365;29;20295;-73
2022/04/29 08:03:04;;;;;;;10.27;3.53;;;13.30;99.90;;;;;;4957292;28;20231;-73
2022/04/29 08:05:31;;;;;;;6.70;4.07;;;13.20;99.90;;;;;;4957840;29;20212;-72
2022/04/29 08:08:00;;;;;;;7.17;3.97;;;13.00;99.90;;;;;;4958797;28;20207;-72
2022/04/29 08:10:27;;;;;;;12.53;4.83;;;13.00;99.90;;;;;;4958137;29;20212;-73
2022/04/29 08:12:54;;;;;;;6.67;3.90;;;13.00;99.90;;;;;;4957759;29;20208;-73
2022/04/29 08:15:21;;;;;;;7.13;3.93;;;12.90;99.90;;;;;;4957182;29;20212;-73
2022/04/29 08:17:49;;;;;;;9.27;3.83;;;12.80;99.90;;;;;;4956942;28;20242;-73
2022/04/29 08:20:15;;;;;;;10.10;4.20;;;12.90;99.90;;;;;;4956795;29;20211;-72
2022/04/29 08:22:43;;;;;;;10.63;4.13;;;13.10;99.90;;;;;;4956622;29;20532;-73
2022/04/29 08:25:10;;;;;;;7.53;3.80;;;13.00;99.90;;;;;;4957159;29;20208;-73
2022/04/29 08:27:37;;;;;;;6.60;4.03;;;12.80;99.90;;;;;;4956785;29;20204;-72
2022/04/29 08:30:06;;;;;;;9.47;3.87;;;12.80;99.90;;;;;;4956304;28;20235;-71
2022/04/29 08:32:39;;;;;;;6.70;3.53;;;13.00;99.90;;;;;;4956735;29;20212;-72
2022/04/29 08:35:09;;;;;;;9.87;4.20;;;13.10;99.90;;;;;;4956665;29;20212;-73
2022/04/29 08:37:36;;;;;;;10.13;4.33;;;13.00;99.90;;;;;;4956360;29;20327;-72
2022/04/29 08:40:04;;;;;;;6.60;4.00;;;12.90;99.90;;;;;;4956474;28;20228;-72
2022/04/29 08:42:36;;;;;;;10.90;4.63;;;12.80;99.90;;;;;;4956736;28;20208;-73
2022/04/29 08:45:06;;;;;;;10.30;4.80;;;12.70;99.90;;;;;;4956470;28;20313;-72
2022/04/29 08:47:35;;;;;;;7.07;4.13;;;12.60;99.90;;;;;;4956546;29;20242;-72
2022/04/29 08:50:03;;;;;;;14.97;4.33;;;12.50;99.90;;;;;;4956390;28;20238;-73
2022/04/29 08:52:31;;;;;;;6.27;3.83;;;12.20;99.90;;;;;;4956028;29;20215;-73
2022/04/29 09:00:30;;;;;;;7.77;4.10;;;12.40;99.90;;;;;;4956088;29;20208;-73
2022/04/29 09:02:59;;;;;;;11.63;4.60;;;12.60;99.90;;;;;;4956357;29;20291;-73
2022/04/29 09:05:27;;;;;;;7.87;4.27;;;12.30;99.90;;;;;;4956279;29;20208;-72
2022/04/29 09:08:00;;;;;;;9.40;4.60;;;12.30;99.90;;;;;;4955990;28;20294;-73
2022/04/29 09:10:29;;;;;;;8.67;4.00;;;12.40;99.90;;;;;;4955966;29;20216;-73
2022/04/29 09:12:59;;;;;;;7.00;3.70;;;12.40;99.90;;;;;;4955976;28;20208;-74
2022/04/29 09:15:25;;;;;;;7.77;4.10;;;12.10;99.90;;;;;;4956008;29;20235;-73
2022/04/29 09:17:53;;;;;;;5.93;3.70;;;11.90;99.90;;;;;;4955713;28;20235;-73
2022/04/29 09:20:21;;;;;;;8.13;4.03;;;11.90;99.90;;;;;;4955958;29;20204;-73
2022/04/29 09:22:49;;;;;;;8.67;4.13;;;12.20;99.90;;;;;;4955705;29;20212;-73
2022/04/29 09:25:18;;;;;;;10.03;4.30;;;12.60;99.90;;;;;;4955875;29;20208;-73
2022/04/29 09:27:58;;;;;;;6.53;4.03;;;12.90;99.90;;;;;;4955729;28;20231;-73
2022/04/29 09:30:37;;;;;;;9.60;4.03;;;12.80;99.90;;;;;;4955571;29;20566;-73
2022/04/29 09:33:04;;;;;;;9.37;4.20;;;12.90;99.90;;;;;;4955696;29;20219;-73
2022/04/29 09:35:42;;;;;;;8.03;3.97;;;13.10;99.90;;;;;;4955587;29;20215;-74
2022/04/29 09:40:58;;;;;;;10.23;4.10;;;13.60;99.90;;;;;;4954620;28;20211;-73
2022/04/29 09:43:37;;;;;;;8.83;4.10;;;13.40;99.90;;;;;;4954913;29;20296;-73
2022/04/29 09:46:15;;;;;;;9.30;4.10;;;13.30;99.90;;;;;;4952094;28;20662;-72
2022/04/29 09:48:58;;;;;;;9.20;5.00;;;13.40;99.90;;;;;;4952953;28;20231;-74
2022/04/29 09:51:45;;;;;;;9.80;4.40;;;13.60;99.90;;;;;;4953458;28;20216;-74
2022/04/29 09:54:23;;;;;;;8.20;4.60;;;13.70;99.90;;;;;;4954722;28;20212;-72
2022/04/29 09:57:14;;;;;;;11.20;3.90;;;13.60;99.90;;;;;;4955234;28;20243;-76
2022/04/29 09:59:42;;;;;;;9.13;4.57;;;13.40;99.90;;;;;;4944416;28;20228;-74
2022/04/29 10:02:10;;;;;;;8.87;4.47;;;13.30;99.90;;;;;;4953378;28;20583;-76
2022/04/29 10:04:40;;;;;;;12.60;4.53;;;13.10;99.90;;;;;;4949938;28;20211;-74
2022/04/29 10:07:09;;;;;;;7.27;4.00;;;12.90;99.90;;;;;;4944408;29;20207;-70
2022/04/29 10:09:38;;;;;;;14.70;4.23;;;12.90;99.90;;;;;;4953162;28;20228;-74
2022/04/29 10:12:10;;;;;;;9.90;4.27;;;13.30;99.90;;;;;;4952370;28;20741;-72
2022/04/29 10:14:40;;;;;;;8.27;4.13;;;13.70;99.90;;;;;;4953256;28;20212;-75
2022/04/29 10:22:43;;;;;;;7.93;4.40;;;13.90;99.90;;;;;;4945062;28;20313;-73
2022/04/29 10:25:12;;;;;;;12.97;5.20;;;13.90;99.90;;;;;;4969147;28;20211;-72
2022/04/29 10:27:40;;;;;;;7.90;3.93;;;14.10;99.90;;;;;;4957342;28;20299;-74
2022/04/29 10:30:09;;;;;;;10.83;4.43;;;14.30;99.90;;;;;;4954417;28;20563;-80
2022/04/29 10:33:01;;;;;;;5.57;3.67;;;14.60;99.90;;;;;;4931624;29;20546;-78
2022/04/29 10:35:53;;;;;;;10.13;3.93;;;14.70;99.90;;;;;;4933318;29;20244;-81
2022/04/29 10:38:24;;;;;;;8.43;3.83;;;14.90;99.90;;;;;;4933816;28;20707;-75
2022/04/29 10:41:10;;;;;;;10.37;4.70;;;15.10;99.90;;;;;;4954323;28;20210;-75
2022/04/29 10:43:38;;;;;;;5.67;3.80;;;15.20;99.90;;;;;;4954632;28;20230;-74
2022/04/29 10:46:23;;;;;;;8.27;4.67;;;15.30;99.90;;;;;;4954154;28;20275;-73
2022/04/29 10:48:52;;;;;;;6.67;3.93;;;15.70;99.90;;;;;;4953973;28;20323;-74
2022/04/29 10:51:20;;;;;;;8.53;4.67;;;15.80;99.90;;;;;;4954377;28;20223;-75
2022/04/29 10:53:50;;;;;;;11.13;4.37;;;15.90;99.90;;;;;;4957604;28;20208;-75
2022/04/29 10:56:37;;;;;;;6.33;3.63;;;16.10;99.90;;;;;;4957885;28;20239;-75
2022/04/29 10:59:21;;;;;;;8.83;4.23;;;16.20;99.90;;;;;;4958013;28;20231;-75
2022/04/29 11:02:06;;;;;;;9.23;4.50;;;16.30;99.90;;;;;;4958130;28;20284;-75
2022/04/29 11:04:46;;;;;;;8.70;4.30;;;16.20;99.90;;;;;;4957898;28;20215;-75
2022/04/29 11:07:39;;;;;;;8.57;4.77;;;16.20;99.90;;;;;;4957728;28;20290;-75
2022/04/29 11:10:08;;;;;;;8.77;4.60;;;15.90;99.90;;;;;;4958201;28;20636;-75
2022/04/29 11:12:36;;;;;;;7.77;4.07;;;16.00;99.90;;;;;;4958069;28;20299;-73
2022/04/29 11:15:08;;;;;;;10.47;4.37;;;16.00;99.90;;;;;;4942267;28;20205;-73
2022/04/29 11:17:38;;;;;;;8.13;4.53;;;15.90;99.90;;;;;;4937288;29;20323;-71
2022/04/29 11:20:19;;;;;;;10.07;4.57;;;15.90;99.90;;;;;;4937109;29;20232;-71
2022/04/29 11:25:51;;;;;;;7.80;4.57;;;15.90;99.90;;;;;;4956380;29;20251;-77
2022/04/29 11:28:19;;;;;;;9.10;4.37;;;15.50;99.90;;;;;;4956092;28;20229;-73
2022/04/29 11:30:46;;;;;;;6.47;3.73;;;15.70;99.90;;;;;;4955523;28;20219;-73
2022/04/29 11:33:14;;;;;;;9.60;4.80;;;15.80;99.90;;;;;;4955976;28;20204;-74
2022/04/29 11:35:42;;;;;;;6.77;3.73;;;15.90;99.90;;;;;;4956293;28;20208;-75
2022/04/29 11:38:10;;;;;;;9.20;4.43;;;16.00;99.90;;;;;;4955583;28;20267;-73
2022/04/29 11:40:40;;;;;;;11.80;4.03;;;16.30;99.90;;;;;;4955619;28;20212;-76
2022/04/29 11:43:11;;;;;;;8.17;4.63;;;16.60;99.90;;;;;;4975619;28;20218;-75
2022/04/29 11:45:40;;;;;;;9.37;4.50;;;16.40;99.90;;;;;;4958135;28;20670;-77
2022/04/29 11:48:09;;;;;;;11.47;4.50;;;16.60;99.90;;;;;;4955992;28;20742;-73
2022/04/29 11:50:38;;;;;;;9.60;4.50;;;16.40;99.90;;;;;;4955413;28;20223;-73
2022/04/29 11:53:09;;;;;;;10.23;4.60;;;16.50;99.90;;;;;;4953236;28;20275;-74
2022/04/29 11:55:36;;;;;;;7.93;4.33;;;16.60;99.90;;;;;;4952188;29;20223;-73
2022/04/29 11:58:04;;;;;;;7.27;4.30;;;16.70;99.90;;;;;;4955656;28;20254;-73
2022/04/29 12:00:32;;;;;;;12.13;4.80;;;16.70;99.90;;;;;;4955925;28;20223;-72
2022/04/29 12:03:01;;;;;;;11.47;5.07;;;16.80;99.90;;;;;;4955578;28;20223;-72
2022/04/29 12:05:30;;;;;;;45.83;10.63;;;17.00;99.90;;;;;;4954632;28;20208;-72
2022/04/29 12:08:02;;;;;;;8.47;5.10;;;17.00;99.90;;;;;;4955724;28;20722;-75
2022/04/29 12:10:30;;;;;;;8.43;4.90;;;17.00;99.90;;;;;;4955816;28;20215;-73
2022/04/29 12:12:58;;;;;;;8.53;4.73;;;17.10;99.90;;;;;;4955572;28;20212;-72
2022/04/29 12:15:28;;;;;;;9.63;4.73;;;17.10;99.90;;;;;;4955380;28;20671;-73
2022/04/29 12:17:59;;;;;;;11.20;4.73;;;17.10;99.90;;;;;;4955056;28;20240;-72
2022/04/29 12:20:27;;;;;;;6.60;4.13;;;17.00;99.90;;;;;;4955512;28;20212;-74
2022/04/29 12:22:54;;;;;;;8.43;4.77;;;17.20;99.90;;;;;;4955710;28;20211;-74
2022/04/29 12:25:25;;;;;;;11.50;5.03;;;17.40;99.90;;;;;;4955355;28;20295;-74
2022/04/29 12:28:09;;;;;;;11.33;5.00;;;17.20;99.90;;;;;;4954890;28;20208;-73
2022/04/29 12:36:08;;;;;;;9.27;4.80;;;17.50;99.30;;;;;;4955027;29;20223;-74
2022/04/29 12:38:35;;;;;;;10.53;4.77;;;17.40;99.00;;;;;;4954900;28;20702;-73
2022/04/29 12:41:16;;;;;;;22.90;7.10;;;17.30;99.60;;;;;;4955153;28;20222;-74
2022/04/29 12:43:43;;;;;;;9.43;4.73;;;17.50;99.40;;;;;;4954738;28;20208;-72
2022/04/29 12:46:15;;;;;;;11.93;5.30;;;17.60;98.70;;;;;;4955451;28;20200;-69
2022/04/29 12:48:50;;;;;;;9.10;4.70;;;17.30;99.10;;;;;;4955600;28;20235;-72
2022/04/29 12:51:24;;;;;;;10.50;5.33;;;17.30;99.20;;;;;;4954278;28;20658;-71
2022/04/29 12:53:51;;;;;;;12.07;4.67;;;17.10;99.00;;;;;;4955182;28;20610;-76
2022/04/29 12:56:28;;;;;;;11.83;4.60;;;17.00;99.60;;;;;;4954869;28;20208;-73
2022/04/29 12:58:55;;;;;;;10.20;4.73;;;17.00;99.70;;;;;;4954253;28;20239;-72
2022/04/29 13:01:22;;;;;;;10.40;4.80;;;16.80;99.90;;;;;;4954954;28;20208;-72
2022/04/29 13:03:51;;;;;;;8.17;5.03;;;17.10;99.90;;;;;;4949818;28;20664;-73
2022/04/29 13:06:20;;;;;;;11.83;4.87;;;17.30;99.90;;;;;;4949408;29;20212;-72
2022/04/29 13:08:49;;;;;;;9.33;4.80;;;17.40;99.90;;;;;;4935622;29;20591;-73
2022/04/29 13:11:17;;;;;;;8.10;4.50;;;17.50;99.20;;;;;;4935738;29;20643;-73
2022/04/29 13:13:46;;;;;;;7.73;4.40;;;17.60;99.60;;;;;;4935314;29;20209;-73
2022/04/29 13:16:13;;;;;;;8.60;4.83;;;17.60;98.90;;;;;;4954037;28;20627;-71
2022/04/29 13:18:40;;;;;;;8.93;4.93;;;17.70;99.40;;;;;;4953981;28;20706;-72
2022/04/29 13:21:08;;;;;;;8.40;4.27;;;17.80;98.10;;;;;;4955172;29;20678;-72
2022/04/29 13:23:35;;;;;;;8.80;4.67;;;17.90;98.10;;;;;;4955437;29;20212;-72
2022/04/29 13:26:03;;;;;;;10.87;4.50;;;17.60;98.80;;;;;;4955338;29;20208;-73
2022/04/29 13:28:31;;;;;;;12.97;5.30;;;17.40;98.30;;;;;;4955784;28;20232;-72
2022/04/29 13:30:59;;;;;;;10.17;4.93;;;17.50;98.30;;;;;;4955343;29;20267;-73
2022/04/29 13:33:27;;;;;;;10.27;4.83;;;17.70;98.50;;;;;;4955614;28;20219;-73
2022/04/29 13:35:54;;;;;;;11.77;5.00;;;17.20;98.80;;;;;;4955754;29;20263;-74
2022/04/29 13:38:22;;;;;;;9.13;4.80;;;17.10;99.90;;;;;;4955462;28;20239;-76
2022/04/29 13:40:49;;;;;;;8.07;5.00;;;17.40;99.90;;;;;;4955665;28;20659;-75
2022/04/29 13:43:17;;;;;;;9.00;4.93;;;17.50;99.10;;;;;;4955388;29;20258;-72
2022/04/29 13:45:45;;;;;;;10.20;4.73;;;17.60;99.30;;;;;;4955168;29;20235;-73
2022/04/29 13:48:15;;;;;;;11.20;5.40;;;17.70;99.10;;;;;;4955277;28;20274;-75
2022/04/29 13:50:43;;;;;;;8.80;4.77;;;17.80;98.60;;;;;;4955466;29;20251;-72
2022/04/29 13:53:11;;;;;;;10.83;5.30;;;18.10;98.70;;;;;;4955279;29;20219;-75
2022/04/29 13:55:39;;;;;;;8.80;4.90;;;18.20;98.00;;;;;;4954910;29;20263;-74
2022/04/29 13:58:07;;;;;;;7.97;4.73;;;18.00;98.20;;;;;;4954592;28;20699;-76
2022/04/29 14:00:34;;;;;;;10.10;5.33;;;17.90;98.50;;;;;;4954928;29;20290;-76
2022/04/29 14:03:01;;;;;;;10.47;5.33;;;18.00;98.30;;;;;;4955109;29;20234;-76
2022/04/29 14:05:30;;;;;;;9.70;4.77;;;18.10;98.00;;;;;;4954998;29;20242;-77
2022/04/29 14:07:57;;;;;;;9.63;5.23;;;18.00;97.70;;;;;;4954198;28;20214;-77
2022/04/29 14:10:24;;;;;;;12.03;5.37;;;17.80;97.70;;;;;;4955150;29;20559;-76
2022/04/29 14:12:52;;;;;;;12.23;5.13;;;17.50;98.10;;;;;;4954919;29;20208;-76
2022/04/29 14:15:18;;;;;;;10.07;5.33;;;17.10;99.10;;;;;;4955333;29;20211;-77
2022/04/29 14:17:45;;;;;;;9.03;4.90;;;17.20;98.20;;;;;;4955140;28;20240;-76
2022/04/29 14:20:13;;;;;;;11.90;5.20;;;17.30;98.00;;;;;;4954980;29;20258;-77
2022/04/29 14:22:42;;;;;;;9.67;4.90;;;17.30;98.50;;;;;;4955028;28;20215;-77
2022/04/29 14:25:11;;;;;;;9.07;4.80;;;17.40;98.00;;;;;;4954905;28;20215;-75
2022/04/29 14:27:38;;;;;;;10.20;5.63;;;17.50;98.10;;;;;;4954565;29;20235;-77
2022/04/29 14:30:07;;;;;;;10.63;5.20;;;17.40;98.50;;;;;;4955018;28;20251;-75
2022/04/29 14:32:34;;;;;;;10.20;5.47;;;17.40;98.40;;;;;;4954944;29;20214;-76
2022/04/29 14:35:01;;;;;;;11.03;5.83;;;17.50;97.80;;;;;;4954931;29;20204;-76
2022/04/29 14:37:31;;;;;;;10.23;5.07;;;17.40;97.90;;;;;;4954408;29;20259;-78
2022/04/29 14:39:59;;;;;;;10.23;5.60;;;17.40;97.90;;;;;;4954809;28;20228;-74
2022/04/29 14:42:26;;;;;;;10.03;5.30;;;17.50;97.30;;;;;;4954861;29;20208;-76
2022/04/29 14:44:54;;;;;;;9.63;5.30;;;17.60;97.00;;;;;;4954997;29;20207;-76
2022/04/29 14:47:21;;;;;;;10.03;5.17;;;17.70;97.00;;;;;;4954679;28;20215;-73
2022/04/29 14:49:49;;;;;;;9.27;5.30;;;17.10;97.40;;;;;;4954453;28;20257;-75
2022/04/29 14:52:16;;;;;;;11.33;5.43;;;16.80;98.10;;;;;;4954438;29;20223;-77